Time;durP1;ratioP1;P1;durP2;ratioP2;P2;SDS_P1;SDS_P2;PMS_P1;PMS_P2;Temp;Humidity;BMP_temperature;BMP_pressure;BME280_temperature;BME280_humidity;BME280_pressure;Samples;Min_cycle;Max_cycle;Signal;HPM_P1;HPM_P2
2022/07/01 00:00:30;;;;;;;14.43;6.90;;;23.00;99.90;;;;;;5022544;28;20328;-74
2022/07/01 00:02:56;;;;;;;10.63;8.18;;;22.90;99.90;;;;;;5028793;28;20184;-74
2022/07/01 00:05:21;;;;;;;11.07;8.25;;;22.80;99.90;;;;;;5038068;28;20229;-74
2022/07/01 00:07:47;;;;;;;9.77;7.85;;;22.80;99.90;;;;;;5040755;28;20239;-73
2022/07/01 00:10:13;;;;;;;11.15;7.88;;;22.60;99.90;;;;;;5038679;28;20192;-74
2022/07/01 00:12:39;;;;;;;10.77;8.18;;;22.70;99.90;;;;;;5035995;28;20197;-73
2022/07/01 00:15:05;;;;;;;11.35;7.75;;;22.40;99.90;;;;;;5021493;28;20188;-73
2022/07/01 00:17:30;;;;;;;8.20;7.15;;;22.50;99.90;;;;;;5022904;28;20220;-73
2022/07/01 00:19:56;;;;;;;8.15;7.05;;;22.70;99.90;;;;;;5023894;28;20235;-73
2022/07/01 00:22:21;;;;;;;8.95;7.53;;;22.80;99.90;;;;;;5021613;28;20243;-74
2022/07/01 00:24:48;;;;;;;10.52;7.32;;;22.70;99.90;;;;;;5021289;28;20185;-73
2022/07/01 00:27:14;;;;;;;9.80;8.05;;;22.80;99.90;;;;;;5022221;28;20235;-74
2022/07/01 00:29:40;;;;;;;11.32;8.05;;;22.80;99.90;;;;;;5022666;28;20205;-72
2022/07/01 00:32:06;;;;;;;10.48;7.95;;;22.80;99.90;;;;;;5021445;28;20243;-74
2022/07/01 00:34:31;;;;;;;13.48;7.70;;;22.70;99.90;;;;;;5021531;28;20194;-74
2022/07/01 00:36:57;;;;;;;9.75;7.93;;;22.70;99.90;;;;;;5021696;28;20594;-73
2022/07/01 00:39:22;;;;;;;10.98;7.85;;;22.60;99.90;;;;;;5012995;28;20181;-74
2022/07/01 00:41:48;;;;;;;9.10;7.65;;;22.70;99.90;;;;;;5018983;28;20268;-73
2022/07/01 00:44:18;;;;;;;12.48;7.95;;;22.70;99.90;;;;;;5018736;28;20583;-73
2022/07/01 00:46:45;;;;;;;8.98;7.53;;;22.50;99.90;;;;;;5021573;28;20220;-74
2022/07/01 00:49:11;;;;;;;10.07;7.75;;;22.60;99.90;;;;;;5020905;28;20668;-74
2022/07/01 00:51:37;;;;;;;10.35;7.43;;;22.60;99.90;;;;;;5019715;28;20204;-73
2022/07/01 00:54:03;;;;;;;10.10;7.97;;;22.60;99.90;;;;;;5021873;28;20193;-73
2022/07/01 00:56:28;;;;;;;12.95;7.82;;;22.50;99.90;;;;;;5018109;28;20196;-73
2022/07/01 00:58:55;;;;;;;14.52;7.95;;;22.30;99.90;;;;;;5018716;28;21138;-74
2022/07/01 01:01:22;;;;;;;10.15;7.68;;;22.20;99.90;;;;;;5017632;28;20200;-73
2022/07/01 01:03:48;;;;;;;12.82;8.18;;;22.30;99.90;;;;;;5020073;28;20251;-73
2022/07/01 01:06:13;;;;;;;11.02;7.65;;;22.30;99.90;;;;;;5019208;28;20185;-74
2022/07/01 01:08:39;;;;;;;10.07;7.22;;;22.30;99.90;;;;;;5018516;28;20226;-75
2022/07/01 01:11:06;;;;;;;10.25;7.95;;;22.20;99.90;;;;;;5020396;28;20176;-73
2022/07/01 01:13:31;;;;;;;10.18;7.55;;;22.00;99.90;;;;;;5019287;28;20185;-73
2022/07/01 01:15:57;;;;;;;10.90;7.20;;;22.00;99.90;;;;;;5020469;28;20204;-73
2022/07/01 01:18:22;;;;;;;10.13;8.00;;;22.00;99.90;;;;;;5021898;28;20225;-75
2022/07/01 01:20:48;;;;;;;9.77;7.47;;;22.10;99.90;;;;;;5023814;28;20558;-74
2022/07/01 01:23:13;;;;;;;8.90;7.70;;;22.10;99.90;;;;;;5023101;28;20620;-73
2022/07/01 01:25:39;;;;;;;8.68;7.50;;;22.10;99.90;;;;;;5021834;28;20185;-74
2022/07/01 01:28:04;;;;;;;10.88;7.50;;;22.00;99.90;;;;;;5023198;28;20220;-73
2022/07/01 01:30:30;;;;;;;9.20;7.43;;;22.00;99.90;;;;;;5022534;28;20536;-74
2022/07/01 01:32:56;;;;;;;12.80;7.70;;;22.10;99.90;;;;;;5022715;28;20204;-74
2022/07/01 01:35:22;;;;;;;11.15;7.72;;;22.10;99.90;;;;;;5027596;28;20252;-74
2022/07/01 01:37:48;;;;;;;9.85;7.80;;;22.20;99.90;;;;;;5035437;28;20196;-74
2022/07/01 01:40:14;;;;;;;9.90;7.32;;;22.10;99.90;;;;;;5034012;28;20221;-74
2022/07/01 01:42:43;;;;;;;9.65;7.15;;;22.00;99.90;;;;;;5033009;28;20294;-75
2022/07/01 01:45:10;;;;;;;12.57;7.40;;;22.00;99.90;;;;;;5030200;28;20189;-75
2022/07/01 01:47:35;;;;;;;10.90;7.60;;;22.10;99.90;;;;;;5029766;28;20230;-75
2022/07/01 01:50:01;;;;;;;9.77;7.78;;;22.00;99.90;;;;;;5022225;28;20264;-75
2022/07/01 01:52:26;;;;;;;9.50;7.70;;;22.00;99.90;;;;;;5020605;28;20628;-75
2022/07/01 01:54:52;;;;;;;9.88;7.80;;;21.90;99.90;;;;;;5021308;28;20333;-75
2022/07/01 01:57:17;;;;;;;10.82;7.95;;;21.90;99.90;;;;;;5026829;28;20295;-74
2022/07/01 01:59:43;;;;;;;9.63;7.82;;;21.80;99.90;;;;;;5032060;28;20238;-75
2022/07/01 02:02:08;;;;;;;7.60;6.70;;;21.80;99.90;;;;;;5032357;28;20242;-75
2022/07/01 02:04:34;;;;;;;9.07;7.35;;;21.80;99.90;;;;;;5029414;28;20232;-74
2022/07/01 02:07:00;;;;;;;11.68;7.88;;;21.80;99.90;;;;;;5017457;28;20225;-74
2022/07/01 02:09:25;;;;;;;11.40;8.07;;;21.80;99.90;;;;;;5019227;28;20189;-73
2022/07/01 02:11:52;;;;;;;10.75;7.93;;;21.70;99.90;;;;;;5018578;28;20571;-74
2022/07/01 02:14:18;;;;;;;9.95;7.78;;;21.80;99.90;;;;;;5018024;28;20262;-73
2022/07/01 02:16:43;;;;;;;14.15;8.23;;;21.70;99.90;;;;;;5017618;28;20623;-73
2022/07/01 02:19:09;;;;;;;9.93;7.78;;;21.60;99.90;;;;;;5019172;28;20195;-74
2022/07/01 02:21:34;;;;;;;12.45;8.05;;;21.70;99.90;;;;;;5017238;28;20533;-73
2022/07/01 02:23:59;;;;;;;11.60;7.97;;;21.80;99.90;;;;;;5017742;28;20727;-74
2022/07/01 02:26:25;;;;;;;13.18;7.68;;;21.80;99.90;;;;;;5017626;28;20225;-75
2022/07/01 02:28:50;;;;;;;8.70;7.13;;;21.90;99.90;;;;;;5016092;28;20714;-74
2022/07/01 02:31:16;;;;;;;11.15;7.43;;;22.10;99.90;;;;;;5019770;28;20181;-73
2022/07/01 02:33:42;;;;;;;12.07;8.15;;;22.00;99.90;;;;;;5017176;28;20260;-73
2022/07/01 02:36:07;;;;;;;9.90;7.93;;;21.90;99.90;;;;;;5017441;28;20188;-73
2022/07/01 02:38:33;;;;;;;10.07;7.20;;;21.80;99.90;;;;;;5015147;28;20188;-73
2022/07/01 02:40:58;;;;;;;13.23;8.18;;;21.70;99.90;;;;;;5018455;28;20193;-74
2022/07/01 02:43:24;;;;;;;8.25;7.00;;;21.90;99.90;;;;;;5016353;28;20184;-74
2022/07/01 02:45:49;;;;;;;11.05;7.72;;;21.80;99.90;;;;;;5018002;28;20185;-73
2022/07/01 02:48:15;;;;;;;12.60;7.07;;;21.60;99.90;;;;;;5021941;28;20284;-74
2022/07/01 02:50:40;;;;;;;12.50;7.78;;;21.70;99.90;;;;;;5021214;28;20192;-76
2022/07/01 02:53:06;;;;;;;10.23;7.28;;;21.90;99.90;;;;;;5025048;28;20176;-74
2022/07/01 02:55:32;;;;;;;11.73;7.72;;;21.90;99.90;;;;;;5023198;28;20180;-73
2022/07/01 02:57:57;;;;;;;9.55;7.32;;;21.80;99.90;;;;;;5024936;28;20189;-73
2022/07/01 03:00:24;;;;;;;13.60;7.40;;;21.60;99.90;;;;;;5026378;28;20540;-73
2022/07/01 03:02:49;;;;;;;9.05;7.60;;;21.60;99.90;;;;;;5024133;28;20651;-75
2022/07/01 03:05:15;;;;;;;9.52;7.78;;;21.40;99.90;;;;;;5023555;28;20237;-75
2022/07/01 03:07:41;;;;;;;13.82;8.02;;;21.60;99.90;;;;;;5023768;28;20700;-74
2022/07/01 03:10:08;;;;;;;16.40;7.47;;;21.50;99.90;;;;;;5024748;28;20197;-75
2022/07/01 03:12:38;;;;;;;11.55;7.15;;;21.60;99.90;;;;;;5023817;28;20204;-72
2022/07/01 03:15:06;;;;;;;10.32;8.20;;;21.60;99.90;;;;;;5023421;28;20196;-74
2022/07/01 03:17:34;;;;;;;10.90;7.00;;;21.40;99.90;;;;;;5023461;28;20196;-74
2022/07/01 03:20:00;;;;;;;11.10;7.72;;;21.50;99.90;;;;;;5023215;28;20195;-74
2022/07/01 03:22:28;;;;;;;9.95;7.85;;;21.40;99.90;;;;;;5022368;28;20247;-73
2022/07/01 03:24:54;;;;;;;9.00;8.00;;;21.50;99.90;;;;;;5018429;28;20247;-73
2022/07/01 03:27:20;;;;;;;11.93;8.10;;;21.50;99.90;;;;;;5020954;28;20787;-73
2022/07/01 03:29:46;;;;;;;9.15;7.05;;;21.30;99.90;;;;;;5021134;28;20648;-74
2022/07/01 03:32:12;;;;;;;12.52;7.78;;;21.40;99.90;;;;;;5020075;28;20198;-75
2022/07/01 03:34:39;;;;;;;12.13;7.63;;;21.50;99.90;;;;;;5017000;28;20844;-74
2022/07/01 03:37:06;;;;;;;8.95;7.45;;;21.50;99.90;;;;;;5021855;28;20191;-74
2022/07/01 03:39:32;;;;;;;10.50;7.70;;;21.40;99.90;;;;;;5023368;28;20247;-70
2022/07/01 03:41:58;;;;;;;9.48;7.55;;;21.50;99.90;;;;;;5018144;28;20192;-68
